Weather at Springs Airfield

Public forecast

Using degrees Celsius for public forecast. Weather courtesy of forecast.io.

Current aviation weather report (METAR) for Springs Airfield

Retrieved 2021/01/21 01:00 UTC (18 minutes ago):

FASI 210100Z AUTO 14004KT //// // ////// 15/14 Q1027

Closest aviation forecast (TAF) to Springs Airfield

Closest forecast is OR Tambo International Airport, 10.5 nm (19.5 km) NW. Retrieved 2021-01-21 00:00 UTC (1 hour ago):

TAF FAOR 202200Z 2100/2206 09010KT CAVOK TX28/2113Z TN17/2103Z PROB30 TEMPO 2102/2106 BKN010 BECMG 2200/2202 VRB03KT PROB30 TEMPO 2203/2206 BKN010